^^
Saratoga-Weather Station Historical Data
Daily Summary for May 24, 2022 Units:  English    Metric   Both
Daily Weekly Monthly Yearly Custom
  High: Low: Average:
Temperature: 63.7 °F 52.5 °F 58.3 °F
Dew Point: 55.9 °F 47.7 °F 51.6 °F
Humidity: 93% 58% 79%
Wind Speed: 20mph 0mph 2.9mph
Wind Gust: 20mph - -
Wind- - West
Pressure: 29.9 in 29.6 in -
Precipitation: 0.24 in    
Historical Graphs
 
 
Tabular Data for May 24, 2022
Time Temperature Dew Point Pressure Wind Wind Speed Wind Gust Humidity Rainfall Rate (Hourly) solar
00:01 57.9 °F 55.6 °F 29.6 in Calm     92% 0 in 0 W/m2
00:06 57.9 °F 55.6 °F 29.6 in Calm     92% 0 in 0 W/m2
00:11 57.9 °F 55.6 °F 29.6 in NW 0.9 mph 3 mph 92% 0 in 0 W/m2
00:16 57.9 °F 55.6 °F 29.6 in NW 0.9 mph 1 mph 92% 0 in 0 W/m2
00:21 57.9 °F 55.6 °F 29.6 in Calm   3 mph 92% 0 in 0 W/m2
00:26 57.9 °F 55.6 °F 29.6 in Calm     92% 0 in 0 W/m2
00:31 58.1 °F 55.8 °F 29.6 in West 2 mph 3 mph 92% 0 in 0 W/m2
00:36 58.1 °F 55.8 °F 29.6 in Calm     92% 0 in 0 W/m2
00:41 58.1 °F 55.8 °F 29.6 in NE 0.9 mph 2 mph 92% 0 in 0 W/m2
00:46 58.1 °F 55.8 °F 29.6 in Calm   2 mph 92% 0 in 0 W/m2
00:51 58.1 °F 55.8 °F 29.6 in NE 0.9 mph 2 mph 92% 0 in 0 W/m2
00:56 58.3 °F 55.9 °F 29.6 in NE 0.9 mph 1 mph 92% 0 in 0 W/m2
01:01 58.3 °F 55.9 °F 29.6 in East 2 mph 2 mph 92% 0 in 0 W/m2
01:06 58.3 °F 55.9 °F 29.6 in SSE 0.9 mph 3 mph 92% 0 in 0 W/m2
01:11 58.3 °F 55.9 °F 29.6 in Calm   1 mph 92% 0 in 0 W/m2
01:16 58.3 °F 55.9 °F 29.6 in Calm   1 mph 92% 0 in 0 W/m2
01:21 58.3 °F 55.9 °F 29.6 in ENE 0.9 mph 2 mph 92% 0 in 0 W/m2
01:26 58.1 °F 55.8 °F 29.6 in Calm   2 mph 92% 0 in 0 W/m2
01:31 57.9 °F 55.6 °F 29.6 in Calm   1 mph 92% 0 in 0 W/m2
01:36 57.9 °F 55.6 °F 29.6 in Calm   2 mph 92% 0 in 0 W/m2
01:41 58.1 °F 55.8 °F 29.6 in WNW 0.9 mph 1 mph 92% 0 in 0 W/m2
01:46 58.1 °F 55.8 °F 29.6 in Calm     92% 0 in 0 W/m2
01:51 58.1 °F 55.8 °F 29.6 in NW 0.9 mph 3 mph 92% 0 in 0 W/m2
01:56 58.1 °F 55.8 °F 29.6 in WNW 0.9 mph 2 mph 92% 0 in 0 W/m2
02:01 58.1 °F 55.8 °F 29.6 in WNW 0.9 mph 2 mph 92% 0 in 0 W/m2
02:06 58.1 °F 55.8 °F 29.6 in Calm   2 mph 92% 0 in 0 W/m2
02:11 58.1 °F 55.8 °F 29.6 in Calm   1 mph 92% 0 in 0 W/m2
02:16 57.9 °F 55.6 °F 29.6 in Calm   1 mph 92% 0 in 0 W/m2
02:21 57.9 °F 55.6 °F 29.6 in Calm   2 mph 92% 0 in 0 W/m2
02:26 57.9 °F 55.6 °F 29.6 in West 2.9 mph 4 mph 92% 0 in 0 W/m2
02:31 57.9 °F 55.2 °F 29.6 in Calm   3 mph 91% 0 in 0 W/m2
02:36 57.9 °F 55.2 °F 29.6 in Calm   2 mph 91% 0 in 0 W/m2
02:41 57.9 °F 55.6 °F 29.6 in West 0.9 mph 4 mph 92% 0 in 0 W/m2
02:46 57.9 °F 55.6 °F 29.6 in NW 0.9 mph 2 mph 92% 0 in 0 W/m2
02:51 57.9 °F 55.6 °F 29.6 in WNW 0.9 mph 3 mph 92% 0 in 0 W/m2
02:56 57.7 °F 55.4 °F 29.6 in NW 0.9 mph 3 mph 92% 0 in 0 W/m2
03:01 57.9 °F 55.6 °F 29.6 in NW 2 mph 2 mph 92% 0 in 0 W/m2
03:06 57.7 °F 55.4 °F 29.6 in Calm   3 mph 92% 0 in 0 W/m2
03:11 57.7 °F 55.4 °F 29.6 in Calm   1 mph 92% 0 in 0 W/m2
03:16 57.7 °F 55.4 °F 29.6 in Calm   2 mph 92% 0 in 0 W/m2
03:21 57.7 °F 55.4 °F 29.6 in Calm   3 mph 92% 0 in 0 W/m2
03:26 57.6 °F 55.2 °F 29.6 in Calm   1 mph 92% 0 in 0 W/m2
03:31 57.6 °F 55.2 °F 29.6 in NNE 0.9 mph 3 mph 92% 0 in 0 W/m2
03:36 57.6 °F 55.2 °F 29.6 in NNW 0.9 mph 4 mph 92% 0.01 in 0 W/m2
03:41 57.6 °F 55.2 °F 29.6 in WNW 4.9 mph 5 mph 92% 0.01 in 0 W/m2
03:46 57.4 °F 55 °F 29.6 in WNW 0.9 mph 4 mph 92% 0.01 in 0 W/m2
03:51 57.4 °F 55 °F 29.6 in NW 2.9 mph 4 mph 92% 0.01 in 0 W/m2
03:56 57.4 °F 55 °F 29.6 in NNW 2 mph 2 mph 92% 0.01 in 0 W/m2
04:01 57.2 °F 54.9 °F 29.6 in NNW 2 mph 3 mph 92% 0.01 in 0 W/m2
04:06 57 °F 54.7 °F 29.6 in NW 2 mph 3 mph 92% 0.02 in 0 W/m2
04:11 57 °F 54.7 °F 29.6 in NNW 2 mph 3 mph 92% 0.02 in 0 W/m2
04:16 57 °F 54.7 °F 29.6 in NNW 4 mph 4 mph 92% 0.02 in 0 W/m2
04:21 57 °F 54.7 °F 29.6 in Calm   2 mph 92% 0.02 in 0 W/m2
04:26 57 °F 54.7 °F 29.6 in WNW 2 mph 4 mph 92% 0.02 in 0 W/m2
04:31 57 °F 54.7 °F 29.6 in NNW 2 mph 2 mph 92% 0.02 in 0 W/m2
04:36 56.8 °F 54.5 °F 29.6 in NW 2 mph 4 mph 92% 0.02 in 0 W/m2
04:41 56.8 °F 54.5 °F 29.6 in NNW 4.9 mph 8 mph 92% 0.02 in 0 W/m2
04:46 56.8 °F 54.5 °F 29.6 in North 2 mph 5 mph 92% 0.02 in 0 W/m2
04:51 56.8 °F 54.5 °F 29.6 in North 2 mph 8 mph 92% 0.05 in 0 W/m2
04:56 56.7 °F 54.3 °F 29.6 in WNW 4 mph 9 mph 92% 0.08 in 0 W/m2
05:01 56.3 °F 54 °F 29.6 in WNW 2 mph 8 mph 92% 0.09 in 0 W/m2
05:06 56.1 °F 53.8 °F 29.6 in WNW 2.9 mph 9 mph 92% 0.09 in 0 W/m2
05:11 55.9 °F 53.6 °F 29.6 in WSW 2 mph 10 mph 92% 0.09 in 0 W/m2
05:16 55.9 °F 53.6 °F 29.6 in NNW 2 mph 3 mph 92% 0.1 in 0 W/m2
05:22 55.8 °F 53.4 °F 29.6 in West 2.9 mph 10 mph 92% 0.1 in 0 W/m2
05:27 55.6 °F 53.2 °F 29.6 in NW 8.9 mph 9 mph 92% 0.11 in 0 W/m2
05:32 55.6 °F 53.2 °F 29.6 in NW 0.9 mph 4 mph 92% 0.12 in 0 W/m2
05:37 55.6 °F 53.2 °F 29.6 in West 9 mph 9 mph 92% 0.13 in 0 W/m2
05:42 55.6 °F 53.2 °F 29.6 in NNW 4 mph 8 mph 92% 0.13 in 0 W/m2
05:47 55.4 °F 53.1 °F 29.6 in NW 4.9 mph 8 mph 92% 0.13 in 0 W/m2
05:52 55.2 °F 52.9 °F 29.6 in NNW 6 mph 8 mph 92% 0.1 in 0 W/m2
05:57 55.2 °F 52.9 °F 29.6 in WNW 2 mph 4 mph 92% 0.07 in 0 W/m2
06:02 55.2 °F 52.9 °F 29.6 in WSW 4.9 mph 8 mph 92% 0.06 in 5 W/m2
06:07 55.2 °F 52.9 °F 29.6 in WNW 2.9 mph 6 mph 92% 0.06 in 5 W/m2
06:12 55 °F 52.7 °F 29.6 in Calm   8 mph 92% 0.05 in 0 W/m2
06:17 55 °F 52.7 °F 29.6 in NW 2.9 mph 4 mph 92% 0.04 in 5 W/m2
06:22 55 °F 52.7 °F 29.7 in West 12.1 mph 14 mph 92% 0.04 in 11 W/m2
06:27 55 °F 52.7 °F 29.7 in WNW 0.9 mph 7 mph 92% 0.03 in 9 W/m2
06:32 55 °F 52.7 °F 29.7 in WNW 2 mph 14 mph 92% 0.03 in 0 W/m2
06:37 54.9 °F 52.5 °F 29.7 in WNW 2 mph 6 mph 92% 0.03 in 9 W/m2
06:42 54.7 °F 52.3 °F 29.7 in WSW 2.9 mph 4 mph 92% 0.04 in 18 W/m2
06:47 54.7 °F 52.3 °F 29.6 in WNW 0.9 mph 4 mph 92% 0.03 in 14 W/m2
06:52 54.7 °F 52.3 °F 29.7 in NW 2.9 mph 6 mph 92% 0.03 in 14 W/m2
06:57 54.3 °F 52 °F 29.7 in West 2 mph 7 mph 92% 0.03 in 11 W/m2
07:02 54.3 °F 52 °F 29.7 in WNW 2 mph 7 mph 92% 0.03 in 14 W/m2
07:07 54.1 °F 51.8 °F 29.7 in WSW 4 mph 8 mph 92% 0.03 in 40 W/m2
07:12 54.3 °F 52 °F 29.7 in WNW 6.9 mph 8 mph 92% 0.03 in 116 W/m2
07:17 54.5 °F 52.5 °F 29.7 in NW 2.9 mph 5 mph 93% 0.03 in 35 W/m2
07:22 54.5 °F 52.2 °F 29.7 in NW 4.9 mph 8 mph 92% 0.02 in 30 W/m2
07:27 54.5 °F 52.2 °F 29.7 in WNW 0.9 mph 3 mph 92% 0.02 in 32 W/m2
07:32 54.3 °F 52 °F 29.7 in WNW 2 mph 11 mph 92% 0.02 in 12 W/m2
07:37 54.3 °F 52 °F 29.7 in WNW 12.1 mph 12 mph 92% 0.02 in 26 W/m2
07:42 53.8 °F 51.3 °F 29.7 in West 4 mph 10 mph 91% 0.02 in 21 W/m2
07:47 53.2 °F 50.7 °F 29.7 in WNW 4.9 mph 8 mph 91% 0.04 in 47 W/m2
07:52 52.9 °F 50.4 °F 29.7 in West 6 mph 9 mph 91% 0.05 in 51 W/m2
07:57 52.5 °F 50 °F 29.7 in WSW 11 mph 11 mph 91% 0.06 in 47 W/m2
08:02 52.5 °F 50.2 °F 29.7 in WNW 8.1 mph 8 mph 92% 0.06 in 42 W/m2
08:07 52.5 °F 50.2 °F 29.7 in SW 4 mph 8 mph 92% 0.06 in 42 W/m2
08:12 52.5 °F 50.2 °F 29.7 in West 8.1 mph 8 mph 92% 0.06 in 39 W/m2
08:17 52.7 °F 50.4 °F 29.7 in WNW 8.1 mph 11 mph 92% 0.06 in 51 W/m2
08:22 53.2 °F 51.3 °F 29.7 in WSW 8.1 mph 10 mph 93% 0.06 in 49 W/m2
08:27 53.8 °F 51.8 °F 29.7 in WNW 6.9 mph 11 mph 93% 0.06 in 49 W/m2
08:32 54.1 °F 51.8 °F 29.7 in NW 4 mph 11 mph 92% 0.06 in 49 W/m2
08:37 54.3 °F 51.8 °F 29.7 in WNW 4.9 mph 10 mph 91% 0.05 in 56 W/m2
08:42 54.7 °F 51.8 °F 29.7 in West 4 mph 11 mph 90% 0.03 in 116 W/m2
08:47 54.9 °F 52.3 °F 29.7 in West 6.9 mph 9 mph 91% 0.02 in 155 W/m2
08:52 55 °F 51.8 °F 29.7 in West 6 mph 11 mph 89% 0.01 in 199 W/m2
08:57 55 °F 51.8 °F 29.7 in West 2 mph 7 mph 89% 0 in 76 W/m2
09:02 54.9 °F 51.4 °F 29.7 in WNW 4.9 mph 11 mph 88% 0 in 144 W/m2
09:07 54.7 °F 51.3 °F 29.7 in NW 4 mph 7 mph 88% 0 in 83 W/m2
09:12 54.7 °F 51.4 °F 29.7 in WNW 6 mph 6 mph 89% 0 in 69 W/m2
09:17 55 °F 51.8 °F 29.7 in WNW 2.9 mph 7 mph 89% 0 in 125 W/m2
09:22 55.6 °F 52.2 °F 29.7 in WSW 4 mph 10 mph 88% 0 in 236 W/m2
09:27 55.9 °F 52.2 °F 29.7 in West 2 mph 7 mph 87% 0 in 239 W/m2
09:32 56.5 °F 52.7 °F 29.7 in WNW 2.9 mph 10 mph 87% 0 in 221 W/m2
09:37 56.7 °F 52.5 °F 29.7 in West 6 mph 6 mph 86% 0 in 272 W/m2
09:42 56.8 °F 52.7 °F 29.7 in WNW 2.9 mph 7 mph 86% 0 in 243 W/m2
09:47 56.8 °F 52.3 °F 29.7 in WNW 15 mph 15 mph 85% 0 in 237 W/m2
09:52 57.2 °F 52.7 °F 29.7 in North 4.9 mph 9 mph 85% 0 in 258 W/m2
09:57 56.8 °F 51.4 °F 29.7 in North 2.9 mph 10 mph 82% 0 in 163 W/m2
10:02 56.8 °F 52 °F 29.7 in WNW 0.9 mph 7 mph 84% 0 in 190 W/m2
10:07 57.2 °F 52.2 °F 29.7 in WNW 0.9 mph 10 mph 83% 0 in 696 W/m2
10:12 57.7 °F 52 °F 29.7 in WSW 2.9 mph 13 mph 81% 0 in 469 W/m2
10:17 57.7 °F 51.6 °F 29.8 in WNW 4.9 mph 11 mph 80% 0 in 206 W/m2
10:22 57.4 °F 51.6 °F 29.8 in WSW 8.1 mph 8 mph 81% 0 in 199 W/m2
10:27 57.4 °F 51.3 °F 29.8 in WNW 8.1 mph 16 mph 80% 0 in 610 W/m2
10:32 57.6 °F 51.4 °F 29.8 in NW 20 mph 20 mph 80% 0 in 258 W/m2
10:37 57.2 °F 51.1 °F 29.8 in NW 2.9 mph 6 mph 80% 0 in 281 W/m2
10:42 57 °F 50.9 °F 29.8 in WSW 20 mph 20 mph 80% 0 in 190 W/m2
10:47 56.8 °F 50.7 °F 29.8 in WNW 2.9 mph 13 mph 80% 0 in 234 W/m2
10:52 56.8 °F 50.7 °F 29.8 in WNW 8.1 mph 9 mph 80% 0 in 355 W/m2
10:57 57.4 °F 50.5 °F 29.8 in WNW 2.9 mph 13 mph 78% 0 in 258 W/m2
11:02 57.6 °F 51.1 °F 29.8 in WNW 2.9 mph 12 mph 79% 0 in 294 W/m2
11:07 58.1 °F 52 °F 29.8 in NNW 8.1 mph 8 mph 80% 0 in 881 W/m2
11:12 58.5 °F 52 °F 29.8 in WSW 4 mph 11 mph 79% 0 in 1034 W/m2
11:17 58.5 °F 51.6 °F 29.8 in WNW 2.9 mph 7 mph 78% 0 in 260 W/m2
11:22 58.3 °F 51.4 °F 29.8 in NW 4.9 mph 9 mph 78% 0 in 338 W/m2
11:27 58.5 °F 52 °F 29.8 in WNW 4 mph 8 mph 79% 0 in 278 W/m2
11:32 58.1 °F 50.5 °F 29.8 in WSW 4.9 mph 11 mph 76% 0 in 169 W/m2
11:37 57.6 °F 50 °F 29.8 in NW 8.9 mph 10 mph 76% 0 in 113 W/m2
11:42 57.7 °F 50.5 °F 29.8 in West 6.9 mph 11 mph 77% 0 in 881 W/m2
11:47 58.5 °F 50.2 °F 29.8 in East 2.9 mph 11 mph 74% 0 in 868 W/m2
11:52 59.2 °F 50.9 °F 29.8 in West 11 mph 11 mph 74% 0 in 867 W/m2
11:57 59.4 °F 50 °F 29.8 in NNW 4.9 mph 6 mph 71% 0 in 352 W/m2
12:02 59.4 °F 50.4 °F 29.8 in NW 2.9 mph 7 mph 72% 0 in 146 W/m2
12:07 59.2 °F 50.2 °F 29.8 in WSW 6.9 mph 12 mph 72% 0 in 74 W/m2
12:12 58.6 °F 50 °F 29.8 in WNW 2 mph 7 mph 73% 0 in 95 W/m2
12:17 57.7 °F 49.5 °F 29.8 in WNW 0.9 mph 10 mph 74% 0 in 255 W/m2
12:22 57.7 °F 49.8 °F 29.8 in WSW 4 mph 8 mph 75% 0 in 255 W/m2
12:27 57.9 °F 49.6 °F 29.8 in WNW 2 mph 15 mph 74% 0 in 227 W/m2
12:32 57.9 °F 50 °F 29.8 in West 0.9 mph 7 mph 75% 0 in 406 W/m2
12:37 58.3 °F 50.4 °F 29.8 in WNW 4.9 mph 15 mph 75% 0 in 761 W/m2
12:42 58.8 °F 49.5 °F 29.8 in WNW 4 mph 11 mph 71% 0 in 652 W/m2
12:47 59.5 °F 48.9 °F 29.8 in NW 2.9 mph 12 mph 68% 0 in 784 W/m2
12:52 60.1 °F 49.5 °F 29.8 in WNW 10.1 mph 10 mph 68% 0 in 847 W/m2
12:57 60.1 °F 49.5 °F 29.8 in WSW 6.9 mph 11 mph 68% 0 in 267 W/m2
13:02 59.9 °F 49.3 °F 29.8 in West 4 mph 7 mph 68% 0 in 255 W/m2
13:07 59.7 °F 49.5 °F 29.8 in WNW 4 mph 11 mph 69% 0 in 167 W/m2
13:12 59.5 °F 50.2 °F 29.8 in WSW 2 mph 4 mph 71% 0 in 404 W/m2
13:17 60.1 °F 50.7 °F 29.8 in NW 4 mph 6 mph 71% 0 in 861 W/m2
13:22 60.3 °F 50 °F 29.8 in WNW 2.9 mph 6 mph 69% 0 in 357 W/m2
13:27 60.1 °F 50.7 °F 29.8 in West 2.9 mph 8 mph 71% 0 in 320 W/m2
13:32 60.1 °F 50.2 °F 29.8 in West 0.9 mph 3 mph 70% 0 in 239 W/m2
13:37 60.1 °F 49.8 °F 29.8 in WNW 4 mph 6 mph 69% 0 in 406 W/m2
13:42 60.3 °F 50.9 °F 29.8 in NW 4 mph 10 mph 71% 0 in 339 W/m2
13:47 60.6 °F 50 °F 29.8 in South 11 mph 11 mph 68% 0 in 338 W/m2
13:52 60.4 °F 48.6 °F 29.8 in SW 4.9 mph 9 mph 65% 0 in 350 W/m2
13:57 60.6 °F 49.6 °F 29.8 in WSW 2 mph 6 mph 67% 0 in 622 W/m2
14:02 61.3 °F 49.8 °F 29.8 in NW 2.9 mph 9 mph 66% 0 in 1109 W/m2
14:07 61.7 °F 49.5 °F 29.8 in West 4 mph 11 mph 64% 0 in 399 W/m2
14:12 61.7 °F 49.8 °F 29.8 in WNW 8.1 mph 8 mph 65% 0 in 350 W/m2
14:17 61.9 °F 50.4 °F 29.8 in WNW 10.1 mph 13 mph 66% 0 in 1107 W/m2
14:22 62.2 °F 49.5 °F 29.8 in West 6 mph 9 mph 63% 0 in 1107 W/m2
14:27 62.2 °F 48.6 °F 29.8 in West 4 mph 12 mph 61% 0 in 287 W/m2
14:32 61.9 °F 48.7 °F 29.8 in WNW 8.1 mph 11 mph 62% 0 in 279 W/m2
14:37 61.3 °F 49.1 °F 29.8 in NW 4.9 mph 7 mph 64% 0 in 302 W/m2
14:42 61.2 °F 49.3 °F 29.8 in West 6 mph 8 mph 65% 0 in 374 W/m2
14:47 61.3 °F 49.8 °F 29.8 in WNW 2.9 mph 8 mph 66% 0 in 404 W/m2
14:52 61.3 °F 49.5 °F 29.8 in WNW 4.9 mph 10 mph 65% 0 in 471 W/m2
14:57 61.7 °F 49.8 °F 29.8 in WSW 6.9 mph 9 mph 65% 0 in 471 W/m2
15:02 61.9 °F 49.6 °F 29.8 in NW 4.9 mph 8 mph 64% 0 in 387 W/m2
15:07 61.9 °F 48.7 °F 29.8 in East 2.9 mph 8 mph 62% 0 in 338 W/m2
15:12 61.5 °F 48.7 °F 29.8 in WNW 4 mph 8 mph 63% 0 in 336 W/m2
15:17 61.3 °F 49.5 °F 29.8 in West 6 mph 7 mph 65% 0 in 436 W/m2
15:22 61.5 °F 48.7 °F 29.8 in NW 0.9 mph 5 mph 63% 0 in 872 W/m2
15:27 62.1 °F 49.8 °F 29.8 in SE 2 mph 8 mph 64% 0 in 809 W/m2
15:32 62.4 °F 49.3 °F 29.8 in NW 2 mph 12 mph 62% 0 in 807 W/m2
15:37 62.6 °F 48.6 °F 29.8 in West 6 mph 15 mph 60% 0 in 788 W/m2
15:42 62.6 °F 48.9 °F 29.8 in WNW 8.1 mph 14 mph 61% 0 in 728 W/m2
15:47 62.2 °F 49.1 °F 29.8 in WNW 2 mph 11 mph 62% 0 in 399 W/m2
15:52 62.2 °F 49.5 °F 29.8 in West 4 mph 10 mph 63% 0 in 397 W/m2
15:57 62.2 °F 49.1 °F 29.8 in West 2 mph 11 mph 62% 0 in 410 W/m2
16:02 62.2 °F 48.6 °F 29.8 in WNW 2 mph 7 mph 61% 0 in 411 W/m2
16:07 62.4 °F 48.4 °F 29.8 in NW 4.9 mph 8 mph 60% 0 in 445 W/m2
16:12 62.6 °F 48.9 °F 29.8 in NW 2 mph 10 mph 61% 0 in 476 W/m2
16:17 62.6 °F 47.7 °F 29.8 in NW 2.9 mph 8 mph 58% 0 in 512 W/m2
16:22 62.8 °F 48.2 °F 29.8 in NE 2 mph 4 mph 59% 0 in 881 W/m2
16:27 63.3 °F 49.3 °F 29.8 in ESE 0.9 mph 7 mph 60% 0 in 737 W/m2
16:32 63.5 °F 49.8 °F 29.8 in East 2 mph 4 mph 61% 0 in 355 W/m2
16:37 63.7 °F 50 °F 29.8 in SSE 2 mph 4 mph 61% 0 in 339 W/m2
16:42 63.7 °F 49.5 °F 29.8 in NW 4 mph 6 mph 60% 0 in 353 W/m2
16:47 63.7 °F 50 °F 29.8 in SE 2.9 mph 7 mph 61% 0 in 332 W/m2
16:52 63.1 °F 49.1 °F 29.8 in SW 2 mph 9 mph 60% 0 in 230 W/m2
16:57 63.1 °F 49.5 °F 29.8 in West 2.9 mph 6 mph 61% 0 in 251 W/m2
17:02 63.1 °F 49.8 °F 29.8 in SW 2 mph 6 mph 62% 0 in 257 W/m2
17:07 63.3 °F 49.6 °F 29.8 in NW 4.9 mph 8 mph 61% 0 in 642 W/m2
17:13 63.7 °F 50 °F 29.8 in West 4 mph 8 mph 61% 0 in 431 W/m2
17:18 63.5 °F 49.3 °F 29.8 in SE 0.9 mph 5 mph 60% 0 in 176 W/m2
17:23 63.3 °F 49.3 °F 29.8 in NNW 2.9 mph 7 mph 60% 0 in 232 W/m2
17:28 63.3 °F 50.5 °F 29.8 in WSW 4 mph 7 mph 63% 0 in 171 W/m2
17:33 63 °F 50.2 °F 29.8 in West 4 mph 9 mph 63% 0 in 155 W/m2
17:38 62.8 °F 50.4 °F 29.8 in NW 2.9 mph 6 mph 64% 0 in 165 W/m2
17:43 62.6 °F 50.7 °F 29.8 in WSW 4 mph 9 mph 65% 0 in 213 W/m2
17:48 62.8 °F 51.3 °F 29.8 in West 6 mph 9 mph 66% 0 in 299 W/m2
17:53 62.6 °F 50.2 °F 29.8 in WNW 2.9 mph 8 mph 64% 0 in 243 W/m2
17:58 62.4 °F 50.5 °F 29.8 in WNW 4 mph 8 mph 65% 0 in 348 W/m2
18:03 62.6 °F 50.7 °F 29.8 in West 4 mph 6 mph 65% 0 in 232 W/m2
18:08 62.4 °F 50 °F 29.8 in WNW 0.9 mph 4 mph 64% 0 in 176 W/m2
18:13 62.1 °F 50.2 °F 29.8 in West 4 mph 8 mph 65% 0 in 148 W/m2
18:18 61.5 °F 49.6 °F 29.8 in WNW 4 mph 7 mph 65% 0 in 123 W/m2
18:23 61.3 °F 49.8 °F 29.8 in WNW 2.9 mph 5 mph 66% 0 in 121 W/m2
18:28 61.2 °F 49.3 °F 29.8 in WSW 2 mph 5 mph 65% 0 in 100 W/m2
18:33 61 °F 49.5 °F 29.8 in WSW 2 mph 4 mph 66% 0 in 104 W/m2
18:38 61 °F 50 °F 29.8 in West 0.9 mph 2 mph 67% 0 in 142 W/m2
18:43 61 °F 50 °F 29.8 in Calm   2 mph 67% 0 in 160 W/m2
18:48 61.2 °F 50.2 °F 29.8 in WNW 0.9 mph 2 mph 67% 0 in 139 W/m2
18:53 61.2 °F 50.2 °F 29.8 in WNW 0.9 mph 3 mph 67% 0 in 137 W/m2
18:58 61.2 °F 50.2 °F 29.8 in WNW 0.9 mph 1 mph 67% 0 in 155 W/m2
19:03 61.3 °F 51.4 °F 29.8 in Calm   3 mph 70% 0 in 132 W/m2
19:08 61.3 °F 51.1 °F 29.8 in Calm     69% 0 in 84 W/m2
19:13 61.5 °F 50.5 °F 29.8 in WNW 0.9 mph 2 mph 67% 0 in 74 W/m2
19:18 61.5 °F 51.3 °F 29.8 in NW 0.9 mph 2 mph 69% 0 in 72 W/m2
19:23 61.3 °F 51.1 °F 29.8 in Calm     69% 0 in 70 W/m2
19:28 61.3 °F 51.8 °F 29.8 in Calm     71% 0 in 72 W/m2
19:33 61.3 °F 52.7 °F 29.8 in Calm     73% 0 in 88 W/m2
19:38 61.2 °F 53.2 °F 29.8 in Calm   2 mph 75% 0 in 107 W/m2
19:43 60.8 °F 52.5 °F 29.8 in WNW 0.9 mph 1 mph 74% 0 in 90 W/m2
19:48 60.8 °F 52.5 °F 29.8 in Calm   2 mph 74% 0 in 83 W/m2
19:53 61 °F 51.4 °F 29.8 in WNW 2 mph 2 mph 71% 0 in 67 W/m2
19:58 61 °F 51.4 °F 29.8 in WNW 2 mph 2 mph 71% 0 in 60 W/m2
20:03 60.8 °F 50.9 °F 29.8 in WSW 2 mph 2 mph 70% 0 in 62 W/m2
20:08 60.6 °F 50.7 °F 29.8 in WNW 0.9 mph 2 mph 70% 0 in 74 W/m2
20:13 60.6 °F 51.1 °F 29.8 in Calm     71% 0 in 84 W/m2
20:18 60.6 °F 50.7 °F 29.8 in Calm   1 mph 70% 0 in 84 W/m2
20:23 60.8 °F 50.9 °F 29.8 in West 0.9 mph 2 mph 70% 0 in 65 W/m2
20:28 60.8 °F 50.9 °F 29.8 in Calm   1 mph 70% 0 in 60 W/m2
20:33 60.6 °F 50.7 °F 29.8 in SW 0.9 mph 1 mph 70% 0 in 60 W/m2
20:38 60.3 °F 50.4 °F 29.8 in NW 0.9 mph 2 mph 70% 0 in 56 W/m2
20:43 60.1 °F 50.7 °F 29.8 in Calm   1 mph 71% 0 in 51 W/m2
20:48 59.9 °F 50.9 °F 29.8 in Calm   2 mph 72% 0 in 42 W/m2
20:53 59.7 °F 51.1 °F 29.8 in Calm   2 mph 73% 0 in 32 W/m2
20:58 59.5 °F 50.9 °F 29.8 in WNW 2 mph 2 mph 73% 0 in 21 W/m2
21:03 59.2 °F 50.9 °F 29.8 in Calm   2 mph 74% 0 in 14 W/m2
21:08 58.8 °F 50.9 °F 29.8 in Calm   1 mph 75% 0 in 11 W/m2
21:13 58.5 °F 50.5 °F 29.8 in Calm   2 mph 75% 0 in 11 W/m2
21:18 58.1 °F 50.9 °F 29.8 in Calm   1 mph 77% 0 in 7 W/m2
21:23 57.9 °F 51.1 °F 29.8 in Calm   2 mph 78% 0 in 0 W/m2
21:28 57.6 °F 50.7 °F 29.9 in Calm     78% 0 in 0 W/m2
21:33 57.4 °F 50.9 °F 29.9 in Calm     79% 0 in 0 W/m2
21:38 57 °F 50.5 °F 29.9 in Calm     79% 0 in 0 W/m2
21:43 56.7 °F 50.5 °F 29.9 in Calm     80% 0 in 0 W/m2
21:48 56.5 °F 50 °F 29.9 in Calm   2 mph 79% 0 in 0 W/m2
21:53 56.5 °F 49.6 °F 29.9 in Calm   2 mph 78% 0 in 0 W/m2
21:58 56.3 °F 50.2 °F 29.9 in Calm   1 mph 80% 0 in 0 W/m2
22:03 56.1 °F 50 °F 29.9 in WSW 2 mph 3 mph 80% 0 in 0 W/m2
22:08 55.9 °F 49.5 °F 29.9 in Calm   1 mph 79% 0 in 0 W/m2
22:13 55.9 °F 49.5 °F 29.9 in WNW 2 mph 3 mph 79% 0 in 0 W/m2
22:18 55.9 °F 49.5 °F 29.9 in Calm   2 mph 79% 0 in 0 W/m2
22:23 55.9 °F 49.5 °F 29.9 in Calm   1 mph 79% 0 in 0 W/m2
22:28 55.9 °F 49.5 °F 29.9 in Calm   2 mph 79% 0 in 0 W/m2
22:33 55.9 °F 49.1 °F 29.9 in West 0.9 mph 1 mph 78% 0 in 0 W/m2
22:38 55.8 °F 49.3 °F 29.9 in Calm   1 mph 79% 0 in 0 W/m2
22:43 55.6 °F 49.5 °F 29.9 in Calm   1 mph 80% 0 in 0 W/m2
22:48 55.4 °F 48.9 °F 29.9 in Calm   2 mph 79% 0 in 0 W/m2
22:53 55.2 °F 49.1 °F 29.9 in Calm   1 mph 80% 0 in 0 W/m2
22:58 55 °F 49.3 °F 29.9 in WSW 4 mph 4 mph 81% 0 in 0 W/m2
23:03 55 °F 48.9 °F 29.9 in West 2 mph 3 mph 80% 0 in 0 W/m2
23:08 55.2 °F 48.7 °F 29.9 in West 2 mph 4 mph 79% 0 in 0 W/m2
23:13 55.6 °F 49.1 °F 29.9 in West 4 mph 6 mph 79% 0 in 0 W/m2
23:18 55.8 °F 48.9 °F 29.9 in West 2.9 mph 4 mph 78% 0 in 0 W/m2
23:23 55.9 °F 49.1 °F 29.9 in West 4 mph 6 mph 78% 0 in 0 W/m2
23:28 55.8 °F 48.9 °F 29.9 in WNW 2.9 mph 4 mph 78% 0 in 0 W/m2
23:33 55.8 °F 48.9 °F 29.9 in WSW 2.9 mph 6 mph 78% 0 in 0 W/m2
23:38 55.6 °F 49.1 °F 29.9 in WNW 2.9 mph 4 mph 79% 0 in 0 W/m2
23:43 55.6 °F 49.1 °F 29.9 in West 2 mph 4 mph 79% 0 in 0 W/m2
23:49 55.4 °F 49.3 °F 29.9 in West 0.9 mph 2 mph 80% 0 in 0 W/m2
23:54 55.2 °F 49.1 °F 29.9 in West 0.9 mph 2 mph 80% 0 in 0 W/m2
23:59 54.9 °F 49.1 °F 29.9 in Calm   2 mph 81% 0 in 0 W/m2
Juneau County Weather
Compliments of Weather Underground - 4 mb